Billings, MT

9:29 PM MDT on September 21, 2014 (GMT -0600)
Downtown Billings | Change Station
CLOSE
Current Station
Personal Weather Station
Location: Billings, MT
Elevation: 3127 ft
Nearby Weather Stations

Elev 3127 ft 45.78 °N, 108.50 °W | Updated 23 minutes ago

Partly Cloudy
Partly Cloudy
70.3 °F
Feels Like 77 °F
N
2.2
Wind Variable Wind from NNW
Gusts 4.5 mph

Today
High -- | Low -- °F
--% Chance of Precip.
Yesterday
High -- | Low -- °F
Precip. -- in
6:59 AM 7:13 PM
Waning Crescent, 4% visible
Pressure 30.06 in
Visibility 10.0 miles
Clouds Few 20000 ft
Heat Index 77 °F
Dew Point 45 °F
Humidity 40%
Rainfall -999.00 in
Snow Depth 1 in , 0 in , 1 in
UV 0 out of 12
Pollen 5.00 out of 12
Air Quality Not available.
Flu Activity Not available.
METAR KBIL 220253Z 36004KT 10SM FEW200 18/06 A3010 RMK AO2 SLP179 T01830061 56008

More Conditions Fewer Conditions

Pressure 30.06 in
Visibility 10.0 miles
Clouds Few 20000 ft
Heat Index 77 °F
Dew Point 45 °F
Humidity 40%
Rainfall -999.00 in
Snow Depth 1 in , 0 in , 1 in
UV 0 out of 12
Pollen 5.00 out of 12
Air Quality Not available.
Flu Activity Not available.
METAR KBIL 220253Z 36004KT 10SM FEW200 18/06 A3010 RMK AO2 SLP179 T01830061 56008

More Conditions Fewer Conditions

10-Day Weather Forecast

Almanac

Astronomy

Sep. 21, 2014 Rise Set
Actual Time 6:59 AM MDT 7:13 PM MDT
Civil Twilight 6:30 AM MDT 7:42 PM MDT
Nautical Twilight 5:54 AM MDT 8:17 PM MDT
Astronomical Twilight 5:18 AM MDT 8:53 PM MDT
Moon 4:30 AM MDT (9/21) 5:55 PM MDT (9/21)
Length of Visible Light 13h 12m
Length of Day
12h 13m
Tomorrow will be 3m 12s shorter.
Waning Crescent, 4% of the Moon is Illuminated
Today
Waning Crescent
Sep 24
New
Oct 1
First Quarter
Oct 8
Full
Oct 15
Last Quarter

Today's Extremes

State Highs State Lows

Community

WunderPhotos

Upload Photos

1,755,382 photos uploaded!

WunderBlogs® & News

Nearby

Snow Depth

Station Depth Elevation
Brackett Creek 1 in 7320 ft
Mount Lockhart 0 in 6400 ft
Waldron 1 in 5600 ft
Stuart Mountain 0 in 7400 ft
Short Creek 0 in 7000 ft

Earthquake Activity

City Distance Mag. Time & Date
No recent earthquake activity has been reported nearby.
Minimum magnitude displayed is 2.5.

Coastal Water Temperatures

Place Temperature
No Stations Reporting

Nearby Weather Stations